createdAt,value
2018-01-10T00:00:03.789Z,20.33
2018-01-10T00:02:30.531Z,19.60
2018-01-10T00:04:57.274Z,21.83
2018-01-10T00:07:24.000Z,22.77
2018-01-10T00:09:50.757Z,20.30
2018-01-10T00:12:17.498Z,20.90
2018-01-10T00:14:44.239Z,22.70
2018-01-10T00:17:11.054Z,20.80
2018-01-10T00:19:37.785Z,20.70
2018-01-10T00:22:04.524Z,20.30
2018-01-10T00:24:31.260Z,20.30
2018-01-10T00:26:58.000Z,19.87
2018-01-10T00:29:24.740Z,19.13
2018-01-10T00:31:51.501Z,20.77
2018-01-10T00:34:18.232Z,20.97
2018-01-10T00:36:44.965Z,20.37
2018-01-10T00:39:11.708Z,18.87
2018-01-10T00:41:38.481Z,18.57
2018-01-10T00:44:05.215Z,17.87
2018-01-10T00:46:31.944Z,16.83
2018-01-10T00:48:58.662Z,18.90
2018-01-10T00:51:25.392Z,19.10
2018-01-10T00:53:52.124Z,20.20
2018-01-10T00:56:18.854Z,22.17
2018-01-10T00:58:45.586Z,22.00
2018-01-10T01:01:12.332Z,20.90
2018-01-10T01:03:39.076Z,23.53
2018-01-10T01:06:05.802Z,21.30
2018-01-10T01:08:32.535Z,19.70
2018-01-10T01:10:59.275Z,20.70
2018-01-10T01:13:26.420Z,21.37
2018-01-10T01:15:53.243Z,21.07
2018-01-10T01:18:19.987Z,21.80
2018-01-10T01:20:46.728Z,21.93
2018-01-10T01:23:13.445Z,20.00
2018-01-10T01:25:40.178Z,20.20
2018-01-10T01:28:06.908Z,18.80
2018-01-10T01:30:33.664Z,21.03
2018-01-10T01:33:00.397Z,20.63
2018-01-10T01:35:27.137Z,19.60
2018-01-10T01:37:53.882Z,20.00
2018-01-10T01:40:20.668Z,18.80
2018-01-10T01:42:47.385Z,19.37
2018-01-10T01:45:14.108Z,18.10
2018-01-10T01:47:40.841Z,19.03
2018-01-10T01:50:07.566Z,18.37
2018-01-10T01:52:34.328Z,18.80
2018-01-10T01:55:01.061Z,18.73
2018-01-10T01:57:27.823Z,20.73
2018-01-10T01:59:54.596Z,20.50
2018-01-10T02:02:21.343Z,20.17
2018-01-10T02:04:48.083Z,19.50
2018-01-10T02:07:14.820Z,19.50
2018-01-10T02:09:41.539Z,18.40
2018-01-10T02:12:08.261Z,20.27
2018-01-10T02:14:34.991Z,19.27
2018-01-10T02:17:01.738Z,19.23
2018-01-10T02:19:28.503Z,19.67
2018-01-10T02:21:55.244Z,16.77
2018-01-10T02:24:21.960Z,18.13
2018-01-10T02:26:48.686Z,19.37
2018-01-10T02:29:15.403Z,19.27
2018-01-10T02:31:42.218Z,19.83
2018-01-10T02:34:08.951Z,16.80
2018-01-10T02:36:35.690Z,16.03
2018-01-10T02:39:02.419Z,16.60
2018-01-10T02:41:29.177Z,16.70
2018-01-10T02:43:55.899Z,16.60
2018-01-10T02:46:22.655Z,18.37
2018-01-10T02:48:49.373Z,17.40
2018-01-10T02:51:16.131Z,16.30
2018-01-10T02:53:42.855Z,16.73
2018-01-10T02:56:09.584Z,16.97
2018-01-10T02:58:36.418Z,17.20
2018-01-10T03:01:03.146Z,16.80
2018-01-10T03:03:29.889Z,17.47
2018-01-10T03:05:56.635Z,17.17
2018-01-10T03:08:23.375Z,17.17
2018-01-10T03:10:50.102Z,15.50
2018-01-10T03:13:16.863Z,15.67
2018-01-10T03:15:43.585Z,15.77
2018-01-10T03:18:10.334Z,14.77
2018-01-10T03:20:37.077Z,17.30
2018-01-10T03:23:03.838Z,15.30
2018-01-10T03:25:30.559Z,15.47
2018-01-10T03:27:57.310Z,15.37
2018-01-10T03:30:24.029Z,14.70
2018-01-10T03:32:50.792Z,13.00
2018-01-10T03:35:17.532Z,14.77
2018-01-10T03:37:44.380Z,14.60
2018-01-10T03:40:11.098Z,14.47
2018-01-10T03:42:37.864Z,14.83
2018-01-10T03:45:04.602Z,14.20
2018-01-10T03:47:31.355Z,13.60
2018-01-10T03:49:58.094Z,14.17
2018-01-10T03:52:24.833Z,13.93
2018-01-10T03:54:51.561Z,13.80
2018-01-10T03:57:18.320Z,14.47
2018-01-10T03:59:45.050Z,14.70
2018-01-10T04:02:11.758Z,14.30
2018-01-10T04:04:38.495Z,13.10
2018-01-10T04:07:05.231Z,14.30
2018-01-10T04:09:31.986Z,14.27
2018-01-10T04:11:58.725Z,14.97
2018-01-10T04:14:25.460Z,14.80
2018-01-10T04:16:52.254Z,13.40
2018-01-10T04:19:18.999Z,13.73
2018-01-10T04:21:45.728Z,14.90
2018-01-10T04:24:12.450Z,13.93
2018-01-10T04:26:39.212Z,13.93
2018-01-10T04:29:05.953Z,15.20
2018-01-10T04:31:32.693Z,14.20
2018-01-10T04:33:59.438Z,13.03
2018-01-10T04:36:26.177Z,13.50
2018-01-10T04:38:52.903Z,14.97
2018-01-10T04:41:19.677Z,13.03
2018-01-10T04:43:46.398Z,12.87
2018-01-10T04:46:13.153Z,14.77
2018-01-10T04:48:40.852Z,12.90
2018-01-10T04:51:07.614Z,13.90
2018-01-10T04:53:34.346Z,13.17
2018-01-10T04:56:01.092Z,13.00
2018-01-10T04:58:27.823Z,11.33
2018-01-10T05:00:54.563Z,11.87
2018-01-10T05:03:21.302Z,13.80
2018-01-10T05:05:48.013Z,14.50
2018-01-10T05:08:14.740Z,14.10
2018-01-10T05:10:41.486Z,13.63
2018-01-10T05:13:08.230Z,14.17
2018-01-10T05:15:35.036Z,13.60
2018-01-10T05:18:01.778Z,12.73
2018-01-10T05:20:28.586Z,11.60
2018-01-10T05:22:55.312Z,13.90
2018-01-10T05:25:22.103Z,12.60
2018-01-10T05:27:49.032Z,13.70
2018-01-10T05:30:15.766Z,13.87
2018-01-10T05:32:42.507Z,14.07
2018-01-10T05:35:09.230Z,12.80
2018-01-10T05:37:35.957Z,14.00
2018-01-10T05:40:02.725Z,12.30
2018-01-10T05:42:29.499Z,13.77
2018-01-10T05:44:56.225Z,13.20
2018-01-10T05:47:23.073Z,13.30
2018-01-10T05:49:49.802Z,13.87
2018-01-10T05:52:16.553Z,14.10
2018-01-10T05:54:43.319Z,12.17
2018-01-10T05:57:10.069Z,14.00
2018-01-10T05:59:36.830Z,14.03
2018-01-10T06:02:03.575Z,14.43
2018-01-10T06:04:30.318Z,14.00
2018-01-10T06:06:57.034Z,13.40
2018-01-10T06:09:23.805Z,14.20
2018-01-10T06:11:50.528Z,13.40
2018-01-10T06:14:17.283Z,14.13
2018-01-10T06:16:44.061Z,13.80
2018-01-10T06:19:10.797Z,13.70
2018-01-10T06:21:37.550Z,12.43
2018-01-10T06:24:04.296Z,13.50
2018-01-10T06:26:31.030Z,12.60
2018-01-10T06:28:57.768Z,11.87
2018-01-10T06:31:24.527Z,11.90
2018-01-10T06:33:51.250Z,12.83
2018-01-10T06:36:18.048Z,13.97
2018-01-10T06:38:44.808Z,13.30
2018-01-10T06:41:11.553Z,12.37
2018-01-10T06:43:38.299Z,12.70
2018-01-10T06:46:05.059Z,13.30
2018-01-10T06:48:31.791Z,12.13
2018-01-10T06:50:58.505Z,12.90
2018-01-10T06:53:25.265Z,12.30
2018-01-10T06:55:51.983Z,13.40
2018-01-10T06:58:18.715Z,11.70
2018-01-10T07:00:45.514Z,11.90
2018-01-10T07:03:12.238Z,14.20
2018-01-10T07:05:38.961Z,13.40
2018-01-10T07:08:05.722Z,12.70
2018-01-10T07:10:32.445Z,14.07
2018-01-10T07:12:59.203Z,14.13
2018-01-10T07:15:25.961Z,19.37
2018-01-10T07:17:52.682Z,15.70
2018-01-10T07:20:19.395Z,12.90
2018-01-10T07:22:46.114Z,11.33
2018-01-10T07:25:12.858Z,12.70
2018-01-10T07:27:39.583Z,13.87
2018-01-10T07:30:06.340Z,12.93
2018-01-10T07:32:33.083Z,13.30
2018-01-10T07:34:59.819Z,12.73
2018-01-10T07:37:26.572Z,12.23
2018-01-10T07:39:53.303Z,13.00
2018-01-10T07:42:20.018Z,12.30
2018-01-10T07:44:46.733Z,12.50
2018-01-10T07:47:13.482Z,11.57
2018-01-10T07:49:40.208Z,13.50
2018-01-10T07:52:06.933Z,12.03
2018-01-10T07:54:33.662Z,12.23
2018-01-10T07:57:00.374Z,12.90
2018-01-10T07:59:27.110Z,12.87
2018-01-10T08:01:53.830Z,13.60
2018-01-10T08:04:20.542Z,13.57
2018-01-10T08:06:47.294Z,14.50
2018-01-10T08:09:14.037Z,14.70
2018-01-10T08:11:40.770Z,13.10
2018-01-10T08:14:07.640Z,13.23
2018-01-10T08:16:34.379Z,13.83
2018-01-10T08:19:01.107Z,13.43
2018-01-10T08:21:27.826Z,14.80
2018-01-10T08:23:54.564Z,14.10
2018-01-10T08:26:21.294Z,13.57
2018-01-10T08:28:48.035Z,14.17
2018-01-10T08:31:14.771Z,13.87
2018-01-10T08:33:41.492Z,13.80
2018-01-10T08:36:08.229Z,13.40
2018-01-10T08:38:34.943Z,13.10
2018-01-10T08:41:01.703Z,13.10
2018-01-10T08:43:28.441Z,12.60
2018-01-10T08:45:55.174Z,12.47
2018-01-10T08:48:21.911Z,12.17
2018-01-10T08:50:48.672Z,11.57
2018-01-10T08:53:15.386Z,11.20
2018-01-10T08:56:01.207Z,12.70
2018-01-10T08:58:29.030Z,13.60
2018-01-10T09:00:55.762Z,13.37
2018-01-10T09:03:22.481Z,11.70
2018-01-10T09:05:49.208Z,12.20
2018-01-10T09:08:15.962Z,11.97
2018-01-10T09:10:42.710Z,10.30
2018-01-10T09:13:09.451Z,10.13
2018-01-10T09:15:36.181Z,11.93
2018-01-10T09:18:02.935Z,10.60
2018-01-10T09:20:29.659Z,10.00
2018-01-10T09:22:56.439Z,10.13
2018-01-10T09:25:23.215Z,10.47
2018-01-10T09:27:49.951Z,11.27
2018-01-10T09:30:16.720Z,10.43
2018-01-10T09:32:43.481Z,10.70
2018-01-10T09:35:10.216Z,11.40
2018-01-10T09:37:36.958Z,10.63
2018-01-10T09:40:03.732Z,11.43
2018-01-10T09:42:30.445Z,12.93
2018-01-10T09:44:57.195Z,11.00
2018-01-10T09:47:23.936Z,11.00
2018-01-10T09:49:50.662Z,10.77
2018-01-10T09:52:17.411Z,11.50
2018-01-10T09:54:44.145Z,12.10
2018-01-10T09:57:10.871Z,12.77
2018-01-10T09:59:37.711Z,13.30
2018-01-10T10:02:04.485Z,13.10
2018-01-10T10:04:31.202Z,11.67
2018-01-10T10:06:57.962Z,12.97
2018-01-10T10:09:24.759Z,13.30
2018-01-10T10:11:51.485Z,13.47
2018-01-10T10:14:18.246Z,11.90
2018-01-10T10:16:44.963Z,13.27
2018-01-10T10:19:11.696Z,12.33
2018-01-10T10:21:38.458Z,12.77
2018-01-10T10:24:05.198Z,13.27
2018-01-10T10:26:31.929Z,12.33
2018-01-10T10:28:58.667Z,14.03
2018-01-10T10:31:25.411Z,13.00
2018-01-10T10:33:52.130Z,13.20
2018-01-10T10:36:18.889Z,14.33
2018-01-10T10:38:45.705Z,12.63
2018-01-10T10:41:12.422Z,15.03
2018-01-10T10:43:39.161Z,14.97
2018-01-10T10:46:05.887Z,13.00
2018-01-10T10:48:32.635Z,13.80
2018-01-10T10:50:59.370Z,14.13
2018-01-10T10:53:26.115Z,11.97
2018-01-10T10:55:52.866Z,12.60
2018-01-10T10:58:19.620Z,11.50
2018-01-10T11:00:46.346Z,11.80
2018-01-10T11:03:13.078Z,12.00
2018-01-10T11:05:39.818Z,11.80
2018-01-10T11:08:06.555Z,12.80
2018-01-10T11:10:33.283Z,11.73
2018-01-10T11:13:00.030Z,13.00
2018-01-10T11:15:26.787Z,12.43
2018-01-10T11:17:53.518Z,11.10
2018-01-10T11:20:20.276Z,12.10
2018-01-10T11:22:47.046Z,12.07
2018-01-10T11:25:13.788Z,12.30
2018-01-10T11:27:40.549Z,12.40
2018-01-10T11:30:07.278Z,12.13
2018-01-10T11:32:34.029Z,11.50
2018-01-10T11:35:00.759Z,12.33
2018-01-10T11:37:27.498Z,12.77
2018-01-10T11:39:54.221Z,12.93
2018-01-10T11:42:20.978Z,12.57
2018-01-10T11:44:47.703Z,13.50
2018-01-10T11:47:14.439Z,12.00
2018-01-10T11:49:41.170Z,12.57
2018-01-10T11:52:07.889Z,12.60
2018-01-10T11:54:34.618Z,12.17
2018-01-10T11:57:01.371Z,13.23
2018-01-10T11:59:28.114Z,10.93
2018-01-10T12:01:54.843Z,11.97
2018-01-10T12:04:21.704Z,11.50
2018-01-10T12:06:48.431Z,11.40
2018-01-10T12:09:15.191Z,11.70
2018-01-10T12:11:41.937Z,10.83
2018-01-10T12:14:08.670Z,10.83
2018-01-10T12:16:35.414Z,12.17
2018-01-10T12:19:02.261Z,11.67
2018-01-10T12:21:28.987Z,10.97
2018-01-10T12:23:55.728Z,10.77
2018-01-10T12:26:22.445Z,10.60
2018-01-10T12:28:49.162Z,10.33
2018-01-10T12:31:15.903Z,12.00
2018-01-10T12:33:42.635Z,10.50
2018-01-10T12:36:09.365Z,12.33
2018-01-10T12:38:36.102Z,10.77
2018-01-10T12:41:02.870Z,10.37
2018-01-10T12:43:29.602Z,9.77
2018-01-10T12:45:56.367Z,11.30
2018-01-10T12:48:23.111Z,11.10
2018-01-10T12:50:49.840Z,11.53
2018-01-10T12:53:16.565Z,11.17
2018-01-10T12:55:43.295Z,12.03
2018-01-10T12:58:10.078Z,12.23
2018-01-10T13:00:36.819Z,11.50
2018-01-10T13:03:03.530Z,11.23
2018-01-10T13:05:30.260Z,11.30
2018-01-10T13:07:56.998Z,10.00
2018-01-10T13:10:23.753Z,9.37
2018-01-10T13:12:50.486Z,10.03
2018-01-10T13:15:17.212Z,10.27
2018-01-10T13:17:43.974Z,10.37
2018-01-10T13:20:10.699Z,10.80
2018-01-10T13:22:37.406Z,11.20
2018-01-10T13:25:04.145Z,10.37
2018-01-10T13:27:30.864Z,10.30
2018-01-10T13:29:57.589Z,10.60
2018-01-10T13:32:24.324Z,12.03
2018-01-10T13:34:51.046Z,10.30
2018-01-10T13:37:17.771Z,11.10
2018-01-10T13:39:44.522Z,10.77
2018-01-10T13:42:11.265Z,11.57
2018-01-10T13:44:38.419Z,12.27
2018-01-10T13:47:05.177Z,11.60
2018-01-10T13:49:31.884Z,11.83
2018-01-10T13:51:58.630Z,10.17
2018-01-10T13:54:25.350Z,10.83
2018-01-10T13:56:52.070Z,11.43
2018-01-10T13:59:18.848Z,11.50
2018-01-10T14:01:45.573Z,12.20
2018-01-10T14:04:12.293Z,12.37
2018-01-10T14:06:39.077Z,12.57
2018-01-10T14:09:05.816Z,12.30
2018-01-10T14:11:32.535Z,11.60
2018-01-10T14:13:59.298Z,11.93
2018-01-10T14:16:26.034Z,12.57
2018-01-10T14:18:52.775Z,11.80
2018-01-10T14:21:19.519Z,11.83
2018-01-10T14:23:46.263Z,11.37
2018-01-10T14:26:12.978Z,11.80
2018-01-10T14:28:39.708Z,11.60
2018-01-10T14:31:06.475Z,11.17
2018-01-10T14:33:33.198Z,10.23
2018-01-10T14:35:59.913Z,11.40
2018-01-10T14:38:26.666Z,11.23
2018-01-10T14:40:53.393Z,11.43
2018-01-10T14:43:20.106Z,9.47
2018-01-10T14:45:46.843Z,9.27
2018-01-10T14:48:13.818Z,9.63
2018-01-10T14:50:40.541Z,10.40
2018-01-10T14:53:07.258Z,9.87
2018-01-10T14:55:33.969Z,10.47
2018-01-10T14:58:00.679Z,11.83
2018-01-10T15:00:27.424Z,10.60
2018-01-10T15:02:54.140Z,10.60
2018-01-10T15:05:20.854Z,11.23
2018-01-10T15:07:47.595Z,11.13
2018-01-10T15:10:14.309Z,11.60
2018-01-10T15:12:41.042Z,11.10
2018-01-10T15:15:07.786Z,10.27
2018-01-10T15:17:34.540Z,10.17
2018-01-10T15:20:01.257Z,10.23
2018-01-10T15:22:27.974Z,10.47
2018-01-10T15:24:54.714Z,10.40
2018-01-10T15:27:21.445Z,10.80
2018-01-10T15:29:48.167Z,10.50
2018-01-10T15:32:14.913Z,10.70
2018-01-10T15:34:41.633Z,11.70
2018-01-10T15:37:08.382Z,8.00
2018-01-10T15:39:35.122Z,9.63
2018-01-10T15:42:01.860Z,10.13
2018-01-10T15:44:28.608Z,10.30
2018-01-10T15:46:55.322Z,8.77
2018-01-10T15:49:22.065Z,9.57
2018-01-10T15:51:48.801Z,9.40
2018-01-10T15:54:15.521Z,9.43
2018-01-10T15:56:42.264Z,10.57
2018-01-10T15:59:08.990Z,10.37
2018-01-10T16:01:35.707Z,10.70
2018-01-10T16:04:02.430Z,12.10
2018-01-10T16:06:29.177Z,11.73
2018-01-10T16:08:55.886Z,10.70
2018-01-10T16:11:22.614Z,9.33
2018-01-10T16:13:49.350Z,9.60
2018-01-10T16:16:16.107Z,9.30
2018-01-10T16:18:42.872Z,8.60
2018-01-10T16:21:09.621Z,10.07
2018-01-10T16:23:36.460Z,9.80
2018-01-10T16:26:03.194Z,10.50
2018-01-10T16:28:29.996Z,8.50
2018-01-10T16:30:56.768Z,9.43
2018-01-10T16:33:23.498Z,8.63
2018-01-10T16:35:50.345Z,9.10
2018-01-10T16:38:17.082Z,8.40
2018-01-10T16:40:43.830Z,8.40
2018-01-10T16:43:10.565Z,8.00
2018-01-10T16:45:37.310Z,8.60
2018-01-10T16:48:04.057Z,9.50
2018-01-10T16:50:30.792Z,9.60
2018-01-10T16:52:57.513Z,8.77
2018-01-10T16:55:24.230Z,9.63
2018-01-10T16:57:50.973Z,10.10
2018-01-10T17:00:17.702Z,9.67
2018-01-10T17:02:44.421Z,10.00
2018-01-10T17:05:11.151Z,10.00
2018-01-10T17:07:37.897Z,10.33
2018-01-10T17:10:04.634Z,9.13
2018-01-10T17:12:31.371Z,9.67
2018-01-10T17:14:58.126Z,10.80
2018-01-10T17:17:24.841Z,10.70
2018-01-10T17:19:51.566Z,10.80
2018-01-10T17:22:18.309Z,10.97
2018-01-10T17:24:45.027Z,10.53
2018-01-10T17:27:11.743Z,12.20
2018-01-10T17:29:38.468Z,10.13
2018-01-10T17:32:05.202Z,9.50
2018-01-10T17:34:31.955Z,9.50
2018-01-10T17:36:58.678Z,10.63
2018-01-10T17:39:25.402Z,11.40
2018-01-10T17:41:52.168Z,19.67
2018-01-10T17:44:18.935Z,20.67
2018-01-10T17:46:49.394Z,24.03
2018-01-10T17:49:16.126Z,19.40
2018-01-10T17:51:42.870Z,15.80
2018-01-10T17:54:09.619Z,15.10
2018-01-10T17:56:36.354Z,12.40
2018-01-10T17:59:03.065Z,12.17
2018-01-10T18:01:29.790Z,11.47
2018-01-10T18:03:56.540Z,11.63
2018-01-10T18:06:23.287Z,11.17
2018-01-10T18:08:50.006Z,10.70
2018-01-10T18:11:16.740Z,10.93
2018-01-10T18:13:43.474Z,12.33
2018-01-10T18:16:10.227Z,12.47
2018-01-10T18:18:36.979Z,11.83
2018-01-10T18:21:03.710Z,12.43
2018-01-10T18:23:30.440Z,11.77
2018-01-10T18:25:57.206Z,10.50
2018-01-10T18:28:23.950Z,11.23
2018-01-10T18:30:50.696Z,13.87
2018-01-10T18:33:17.445Z,13.10
2018-01-10T18:35:44.165Z,14.80
2018-01-10T18:38:10.952Z,14.30
2018-01-10T18:40:37.702Z,13.60
2018-01-10T18:43:04.425Z,13.23
2018-01-10T18:45:31.148Z,14.83
2018-01-10T18:47:57.919Z,16.00
2018-01-10T18:50:24.668Z,16.30
2018-01-10T18:52:51.409Z,17.53
2018-01-10T18:55:18.172Z,15.60
2018-01-10T18:57:44.914Z,19.47
2018-01-10T19:00:11.705Z,15.77
2018-01-10T19:02:38.438Z,14.00
2018-01-10T19:05:05.162Z,12.80
2018-01-10T19:07:31.898Z,14.20
2018-01-10T19:09:58.630Z,12.70
2018-01-10T19:12:25.354Z,14.13
2018-01-10T19:14:52.074Z,13.17
2018-01-10T19:17:18.814Z,12.23
2018-01-10T19:19:45.541Z,12.83
2018-01-10T19:22:12.260Z,13.07
2018-01-10T19:24:39.005Z,11.90
2018-01-10T19:27:05.740Z,12.60
2018-01-10T19:29:32.478Z,12.70
2018-01-10T19:31:59.223Z,13.70
2018-01-10T19:34:25.965Z,13.10
2018-01-10T19:36:52.699Z,13.40
2018-01-10T19:39:19.479Z,15.70
2018-01-10T19:41:46.228Z,16.77
2018-01-10T19:44:12.967Z,16.00
2018-01-10T19:46:39.735Z,13.53
2018-01-10T19:49:06.493Z,13.70
2018-01-10T19:51:33.244Z,15.40
2018-01-10T19:53:59.967Z,14.03
2018-01-10T19:56:26.704Z,15.80
2018-01-10T19:58:53.449Z,16.30
2018-01-10T20:01:20.189Z,15.57
2018-01-10T20:03:46.937Z,15.67
2018-01-10T20:06:13.691Z,16.53
2018-01-10T20:08:40.426Z,16.27
2018-01-10T20:11:07.154Z,16.77
2018-01-10T20:13:33.887Z,16.20
2018-01-10T20:16:00.646Z,16.47
2018-01-10T20:18:27.385Z,16.43
2018-01-10T20:20:54.132Z,15.30
2018-01-10T20:23:20.875Z,17.63
2018-01-10T20:25:47.614Z,17.10
2018-01-10T20:28:14.359Z,17.30
2018-01-10T20:30:41.124Z,16.57
2018-01-10T20:33:07.851Z,17.00
2018-01-10T20:35:34.595Z,18.30
2018-01-10T20:38:01.326Z,17.33
2018-01-10T20:40:28.057Z,18.40
2018-01-10T20:42:54.794Z,18.03
2018-01-10T20:45:21.556Z,17.73
2018-01-10T20:47:48.297Z,17.40
2018-01-10T20:50:15.035Z,18.33
2018-01-10T20:52:41.885Z,17.40
2018-01-10T20:55:08.627Z,17.50
2018-01-10T20:57:35.373Z,16.73
2018-01-10T21:00:02.126Z,17.00
2018-01-10T21:02:29.161Z,15.83
2018-01-10T21:04:55.889Z,16.63
2018-01-10T21:07:22.643Z,15.17
2018-01-10T21:09:49.431Z,16.90
2018-01-10T21:12:16.178Z,15.93
2018-01-10T21:14:42.924Z,18.47
2018-01-10T21:17:09.653Z,15.70
2018-01-10T21:19:36.385Z,16.80
2018-01-10T21:24:36.369Z,16.20
2018-01-10T21:27:03.138Z,17.20
2018-01-10T21:29:29.869Z,18.80
2018-01-10T21:31:56.624Z,19.20
2018-01-10T21:34:23.369Z,20.33
2018-01-10T21:36:50.096Z,20.10
2018-01-10T21:39:26.853Z,19.40
2018-01-10T21:41:53.603Z,21.23
2018-01-10T21:44:20.335Z,20.63
2018-01-10T21:46:57.107Z,19.57
2018-01-10T21:49:24.109Z,19.27
2018-01-10T21:51:50.848Z,18.33
2018-01-10T21:54:17.580Z,18.63
2018-01-10T21:56:44.359Z,17.67
2018-01-10T21:59:11.099Z,18.50
2018-01-10T22:01:37.837Z,20.33
2018-01-10T22:04:04.569Z,18.63
2018-01-10T22:06:31.281Z,19.30
2018-01-10T22:08:58.016Z,18.67
2018-01-10T22:11:24.726Z,18.83
2018-01-10T22:13:51.497Z,19.50
2018-01-10T22:16:18.245Z,19.33
2018-01-10T22:18:44.996Z,17.70
2018-01-10T22:21:11.709Z,18.30
2018-01-10T22:23:38.427Z,19.50
2018-01-10T22:26:05.151Z,19.40
2018-01-10T22:28:31.874Z,18.07
2018-01-10T22:30:58.628Z,19.23
2018-01-10T22:33:25.365Z,19.80
2018-01-10T22:35:52.074Z,19.60
2018-01-10T22:38:18.821Z,19.90
2018-01-10T22:40:45.532Z,19.73
2018-01-10T22:43:12.270Z,19.60
2018-01-10T22:45:39.020Z,18.20
2018-01-10T22:48:05.737Z,16.50
2018-01-10T22:50:32.494Z,17.13
2018-01-10T22:52:59.256Z,17.90
2018-01-10T22:55:25.971Z,15.60
2018-01-10T22:57:52.691Z,17.80
2018-01-10T23:00:26.241Z,17.23
2018-01-10T23:02:52.959Z,17.03
2018-01-10T23:05:19.736Z,16.10
2018-01-10T23:07:46.467Z,15.00
2018-01-10T23:10:13.211Z,15.37
2018-01-10T23:12:39.929Z,15.27
2018-01-10T23:15:06.688Z,15.90
2018-01-10T23:17:33.406Z,15.80
2018-01-10T23:20:00.143Z,16.47
2018-01-10T23:22:26.885Z,16.10
2018-01-10T23:24:53.620Z,18.37
2018-01-10T23:27:20.337Z,16.60
2018-01-10T23:29:47.115Z,18.67
2018-01-10T23:32:13.875Z,18.10
2018-01-10T23:34:40.592Z,19.50
2018-01-10T23:37:07.352Z,18.27
2018-01-10T23:39:34.080Z,16.63
2018-01-10T23:42:00.812Z,16.03
2018-01-10T23:44:27.555Z,15.70
2018-01-10T23:46:54.275Z,13.90
2018-01-10T23:49:21.018Z,15.03
2018-01-10T23:51:47.754Z,14.63
2018-01-10T23:54:14.504Z,16.00
2018-01-10T23:56:41.233Z,14.30
2018-01-10T23:59:07.981Z,14.10
